Grande Prairie Airport
CYQU : now visible

Airfield :











YOU CAN JOIN US ON...

 
LOGIN :

Register | Disclaimer

   EN    FR    IT 

 









Legend :    VFR   Marginal VFR   IFR   Intensive IFR   Very Intensive IFR
Visi :
Ceiling :
>= 8 km
>= 3000ft
5 to 8 km
1000 to 3000 ft
1500m to 5 km
500 to 1000 ft
800 to 1500m
200 to 500 ft
< 800m
< 200 ft
Symbols :   Thunderstorms  Fog  Heavy snow  Heavy precipitations  Wind > 20 kt







- Airport Elevation : 2195 ft
- IATA code : YQU


CYQU - Grande Prairie

CURRENT METAR :
  • 200800Z 07009KT 25SM FEW090 05/M02 A2983 RMK AC1 AC TR SLP118

EXPIRED METARs :
  • 200700Z 08007KT 25SM FEW090 07/M03 A2985 RMK AC1 AC TR SLP123
  • 200600Z 10009KT 25SM FEW090 12/M03 A2985 RMK AC1 SLP120 DENSITY ALT 2500FT

TAF TAF CYQU
Valid from the 20 at 07:00 until the 20 at 19:00 UTC


200646Z 2007/2019 10010KT P6SM SKC
BECMG 2014/2016 12015G25KT RMK NXT FCST BY 201300Z
CZEG FIR / North America



MET'MAP, your aeronautical weather chart ! - Copyright ORBIFLY December 2007 - Disclaimer

ORBIFLY MET'MAP TEAM :

Programming & Development : Alexandra Zaïnal
Concept & Development : Baudouin d'Aumeries
Co-Development & Prog : Marc-Olivier Méhu
Technical & hardware support : Manuel Goepfert

Contact : metmap@orbifly.com




SOURCES & CREDITS :

   NOAA       Earth
Advisory